Latest Weather Observations for Sydney - Observatory Hill

IDN60801

Issued at 1:03 pm EDT Tuesday 21 November 2017 (issued every 30 minutes, with the page automatically refreshed every 10 minutes)

About weather observations | Map of weather stations | Latest weather observations for NSW | Other Formats
Station Details ID: 066062 Name: SYDNEY (OBSERVATORY HILL) Lat: -33.86 Lon: 151.21 Height: 39.0 m
Data from the previous 72 hours. | See also: Recent months at Sydney - Observatory Hill

* Apparent temperature (App Temp) for Sydney - Observatory Hill is calculated using temperature observations collected at Sydney - Observatory Hill and wind observations collected at Fort Denison, as wind observations are not currently provided for Sydney - Observatory Hill.

Date/Time
EDT
Temp
°C
App
Temp
°C
Dew
Point
°C
Rel
Hum
%
Delta-T
°C
Wind Press
QNH
hPa
Press
MSL
hPa
Rain since
9am
mm
Dir  Spd
km/h
Gust
km/h
Spd
kts
Gust
kts
21/01:00pm 22.7 20.0 11.7 49 6.2 ESE 17 - 9 - 1024.2 1024.1 0.0
21/12:30pm 22.9 19.5 11.3 48 6.5 ESE 20 - 11 - 1024.4 1024.3 0.0
21/12:00pm 22.2 20.1 11.3 50 6.0 SE 13 - 7 - 1024.8 1024.7 0.0
21/11:30am 22.4 20.0 11.5 50 6.1 ESE 15 - 8 - 1024.8 1024.7 0.0
21/11:00am 22.7 19.7 10.8 47 6.6 ESE 17 - 9 - 1024.9 1024.8 0.0
21/10:30am 22.2 19.2 9.4 44 6.9 ESE 15 - 8 - 1025.0 1024.9 0.0
21/10:00am 21.4 18.1 9.6 47 6.3 SE 17 - 9 - 1025.1 1025.0 0.0
21/09:30am 22.0 18.9 8.9 43 7.0 ESE 15 - 8 - 1024.8 1024.7 0.0
21/09:00am 21.5 19.5 8.7 44 6.7 ESE 9 - 5 - 1024.8 1024.7 1.6
21/08:30am 20.4 18.0 9.9 51 5.6 ESE 13 - 7 - 1025.0 1024.9 1.6
21/08:00am 20.2 17.6 9.2 49 5.8 ESE 13 - 7 - 1024.9 1024.8 1.6
21/07:30am 19.8 18.9 10.8 56 4.9 SE 6 - 3 - 1024.7 1024.6 1.6
21/07:00am 19.0 18.0 11.1 60 4.3 SSE 7 - 4 - 1024.3 1024.2 1.6
21/06:30am 18.4 17.5 11.2 63 3.9 SSE 7 - 4 - 1024.3 1024.2 1.6
21/06:00am 18.1 16.6 10.5 61 4.1 SSE 9 - 5 - 1024.1 1024.0 1.6
21/05:30am 18.4 17.3 10.5 60 4.2 SE 7 - 4 - 1023.9 1023.8 1.6
21/05:00am 18.7 16.8 10.5 59 4.4 ESE 11 - 6 - 1023.7 1023.6 1.6
21/04:30am 18.7 16.1 10.8 60 4.3 ESE 15 - 8 - 1023.6 1023.5 1.6
21/04:00am 18.7 16.9 11.0 61 4.2 ESE 11 - 6 - 1023.7 1023.6 1.6
21/03:30am 18.8 16.7 11.1 61 4.2 ESE 13 - 7 - 1023.6 1023.5 1.6
21/03:00am 18.7 17.1 11.5 63 3.9 ESE 11 - 6 - 1023.7 1023.6 1.6
21/02:30am 18.8 17.7 11.9 64 3.8 SE 9 - 5 - 1023.7 1023.6 1.6
21/02:00am 18.8 18.2 12.3 66 3.6 SE 7 - 4 - 1023.9 1023.8 1.6
21/01:30am 18.9 17.7 12.9 68 3.4 ESE 11 - 6 - 1024.1 1024.0 1.6
21/01:00am 18.8 19.1 13.4 71 3.1 S 4 - 2 - 1024.5 1024.4 1.6
21/12:30am 18.7 19.1 13.6 72 2.9 SSW 4 - 2 - 1024.8 1024.7 1.6
21/12:00am 18.5 18.8 13.4 72 2.9 S 4 - 2 - 1025.1 1025.0 1.6
 
Date/Time
EDT
Temp
°C
App
Temp
°C
Dew
Point
°C
Rel
Hum
%
Delta-T
°C
Wind Press
QNH
hPa
Press
MSL
hPa
Rain since
9am
mm
Dir  Spd
km/h
Gust
km/h
Spd
kts
Gust
kts
20/11:30pm 18.6 18.8 13.2 71 3.1 S 4 - 2 - 1025.1 1025.0 1.6
20/11:00pm 18.3 18.4 12.7 70 3.1 SSW 4 - 2 - 1025.3 1025.2 1.6
20/10:30pm 18.1 17.5 12.3 69 3.2 SSE 7 - 4 - 1025.4 1025.3 1.6
20/10:00pm 18.5 17.9 12.3 67 3.4 SE 7 - 4 - 1025.4 1025.3 1.6
20/09:30pm 18.6 17.5 12.1 66 3.6 SE 9 - 5 - 1025.3 1025.2 1.6
20/09:00pm 19.0 18.0 12.3 65 3.7 SE 9 - 5 - 1025.2 1025.1 1.6
20/08:30pm 19.4 17.8 12.7 65 3.8 ESE 13 - 7 - 1024.9 1024.8 1.6
20/08:00pm 19.6 17.6 12.6 64 3.9 ESE 15 - 8 - 1024.8 1024.7 1.6
20/07:30pm 19.9 18.1 12.2 61 4.3 ESE 13 - 7 - 1024.8 1024.7 1.6
20/07:00pm 20.2 17.3 12.2 60 4.5 ESE 19 - 10 - 1024.6 1024.5 1.6
20/06:30pm 20.6 17.8 13.1 62 4.3 ESE 20 - 11 - 1024.3 1024.2 1.6
20/06:00pm 20.6 17.5 12.3 59 4.6 ESE 20 - 11 - 1024.1 1024.0 1.6
20/05:30pm 20.8 18.0 12.5 59 4.7 ESE 19 - 10 - 1024.0 1023.9 1.6
20/05:00pm 21.0 18.2 12.7 59 4.7 ESE 19 - 10 - 1024.1 1024.0 1.6
20/04:30pm 21.4 18.4 12.5 57 5.0 ESE 20 - 11 - 1024.2 1024.1 1.6
20/04:00pm 21.4 18.4 12.5 57 5.0 ESE 20 - 11 - 1024.4 1024.3 1.6
20/03:30pm 21.8 18.8 12.4 55 5.3 ESE 20 - 11 - 1024.6 1024.5 1.6
20/03:00pm 22.4 19.8 13.2 56 5.3 E 19 - 10 - 1024.8 1024.7 1.4
20/02:30pm 22.1 19.4 13.5 58 5.0 ESE 20 - 11 - 1025.1 1025.0 1.4
20/02:00pm 21.7 18.8 12.8 57 5.1 ESE 20 - 11 - 1025.5 1025.4 1.4
20/01:30pm 22.1 19.7 13.7 59 4.9 ESE 19 - 10 - 1025.5 1025.4 1.4
20/01:00pm 21.6 20.8 15.2 67 3.8 ESE 13 - 7 - 1025.8 1025.7 1.4
20/12:30pm 20.3 20.7 15.3 73 3.0 E 7 - 4 - 1026.0 1025.9 1.4
20/12:00pm 19.3 18.7 15.6 79 2.2 SE 13 - 7 - 1026.2 1026.1 1.4
20/11:30am 18.4 16.8 16.0 86 1.4 E 19 - 10 - 1026.2 1026.1 1.4
20/11:00am 18.4 18.7 16.0 86 1.4 ESE 9 - 5 - 1026.4 1026.3 1.0
20/10:30am 18.0 15.9 15.3 84 1.6 E 20 - 11 - 1026.2 1026.1 1.0
20/10:00am 19.4 18.7 15.5 78 2.3 ESE 13 - 7 - 1026.0 1025.9 0.2
20/09:30am 19.1 20.3 15.8 81 2.0 SE 4 - 2 - 1025.9 1025.8 0.0
20/09:00am 18.4 19.2 14.9 80 2.0 WNW 4 - 2 - 1026.0 1025.9 2.8
20/08:30am 18.4 18.4 14.3 77 2.4 SSE 7 - 4 - 1025.9 1025.8 2.0
20/08:00am 19.5 16.2 14.1 71 3.1 ESE 24 - 13 - 1025.6 1025.5 1.8
20/07:30am 20.0 16.6 13.7 67 3.6 ESE 24 - 13 - 1025.1 1025.0 1.8
20/07:00am 19.4 17.9 13.1 67 3.6 SE 13 - 7 - 1024.8 1024.7 1.8
20/06:30am 18.4 18.0 13.1 71 3.0 SE 7 - 4 - 1024.5 1024.4 1.8
20/06:00am 18.2 16.7 14.1 77 2.3 ESE 15 - 8 - 1024.4 1024.3 1.8
20/05:30am 18.4 16.3 13.7 74 2.7 E 17 - 9 - 1024.1 1024.0 1.8
20/05:00am 18.2 16.5 12.4 69 3.2 SSE 13 - 7 - 1024.0 1023.9 1.8
20/04:30am 18.0 16.8 12.9 72 2.9 SSE 11 - 6 - 1023.9 1023.8 1.8
20/04:00am 18.1 16.5 12.8 71 3.0 SE 13 - 7 - 1023.7 1023.6 1.8
20/03:30am 18.4 17.9 12.6 69 3.2 SSW 7 - 4 - 1023.7 1023.6 1.8
20/03:00am 18.3 17.7 12.3 68 3.3 SSW 7 - 4 - 1023.8 1023.7 1.8
20/02:30am 18.4 17.5 12.6 69 3.2 S 9 - 5 - 1024.0 1023.9 1.8
20/02:00am 18.1 17.4 12.1 68 3.3 SSE 7 - 4 - 1024.0 1023.9 1.8
20/01:30am 18.0 16.9 12.0 68 3.3 SSE 9 - 5 - 1024.1 1024.0 1.8
20/01:00am 17.6 16.0 11.6 68 3.3 SSE 11 - 6 - 1024.3 1024.2 1.8
20/12:30am 17.9 15.9 11.5 66 3.5 SSE 13 - 7 - 1024.4 1024.3 1.8
20/12:00am 18.3 16.4 11.8 66 3.6 SE 13 - 7 - 1024.8 1024.7 1.8
 
Date/Time
EDT
Temp
°C
App
Temp
°C
Dew
Point
°C
Rel
Hum
%
Delta-T
°C
Wind Press
QNH
hPa
Press
MSL
hPa
Rain since
9am
mm
Dir  Spd
km/h
Gust
km/h
Spd
kts
Gust
kts
19/11:30pm 18.4 16.6 12.2 67 3.4 SE 13 - 7 - 1024.8 1024.7 1.8
19/11:00pm 18.7 16.7 12.7 68 3.3 SE 15 - 8 - 1024.8 1024.7 1.8
19/10:30pm 18.8 17.3 13.0 69 3.3 SE 13 - 7 - 1025.0 1024.9 1.8
19/10:00pm 18.7 18.0 13.1 70 3.1 SE 9 - 5 - 1025.0 1024.9 1.8
19/09:30pm 18.9 17.5 13.5 71 3.1 SE 13 - 7 - 1024.8 1024.7 1.8
19/09:00pm 19.2 17.6 13.8 71 3.1 SE 15 - 8 - 1024.6 1024.5 1.8
19/08:30pm 19.3 17.6 14.6 74 2.7 ESE 17 - 9 - 1024.1 1024.0 1.8
19/08:00pm 19.2 18.1 15.3 78 2.3 ESE 15 - 8 - 1024.0 1023.9 1.8
19/07:30pm 18.7 19.6 16.1 85 1.5 ESE 6 - 3 - 1023.8 1023.7 1.8
19/07:00pm 18.2 18.9 15.6 85 1.5 E 6 - 3 - 1023.6 1023.5 1.8
19/06:30pm 18.4 19.1 16.0 86 1.4 ESE 7 - 4 - 1023.5 1023.4 1.8
19/06:00pm 18.4 18.6 15.8 85 1.5 ESE 9 - 5 - 1023.4 1023.3 0.4
19/05:30pm 19.2 15.5 15.1 77 2.4 ESE 28 - 15 - 1023.3 1023.2 0.0
19/05:00pm 21.1 16.8 14.3 65 4.0 ESE 30 - 16 - 1022.8 1022.7 0.0
19/04:30pm 21.7 18.0 13.9 61 4.5 ESE 26 - 14 - 1022.7 1022.6 0.0
19/04:00pm 22.0 18.7 14.1 61 4.6 ESE 24 - 13 - 1022.7 1022.6 0.0
19/03:30pm 22.7 19.8 12.9 54 5.6 ESE 20 - 11 - 1022.8 1022.7 0.0
19/03:00pm 23.0 19.9 12.3 51 6.1 ESE 20 - 11 - 1023.1 1023.0 0.0
19/02:30pm 22.7 19.1 13.2 55 5.5 ESE 24 - 13 - 1023.2 1023.1 0.0
19/02:00pm 22.9 19.6 12.8 53 5.8 ESE 22 - 12 - 1023.5 1023.4 0.0
19/01:30pm 23.1 20.1 13.6 55 5.5 ESE 22 - 12 - 1023.5 1023.4 0.0
19/01:00pm 23.0 20.1 12.9 53 5.8 ESE 20 - 11 - 1023.6 1023.5 0.0
19/12:30pm 23.3 20.2 11.7 48 6.5 ESE 19 - 10 - 1023.7 1023.6 0.0
19/12:00pm 22.7 19.7 12.0 50 6.0 ESE 19 - 10 - 1023.8 1023.7 0.0
19/11:30am 22.5 19.6 12.4 52 5.7 E 19 - 10 - 1024.0 1023.9 0.0
19/11:00am 22.2 19.0 11.3 50 6.0 ESE 19 - 10 - 1024.0 1023.9 0.0
19/10:30am 22.0 19.1 11.1 50 6.0 ESE 17 - 9 - 1024.0 1023.9 0.0
19/10:00am 22.2 19.9 11.6 51 5.9 ESE 15 - 8 - 1023.9 1023.8 0.0
19/09:30am 22.4 20.5 11.8 51 6.0 ESE 13 - 7 - 1023.9 1023.8 0.0
19/09:00am 22.3 20.5 12.0 52 5.8 ESE 13 - 7 - 1023.8 1023.7 2.4
19/08:30am 21.8 20.5 12.4 55 5.3 E 11 - 6 - 1023.7 1023.6 2.4
19/08:00am 21.4 19.5 13.1 59 4.7 E 15 - 8 - 1023.4 1023.3 2.4
19/07:30am 20.7 18.9 13.2 62 4.3 E 15 - 8 - 1023.0 1022.9 2.4
19/07:00am 19.3 17.1 13.3 68 3.4 E 17 - 9 - 1022.6 1022.5 2.4
19/06:30am 18.9 17.0 13.1 69 3.3 ESE 15 - 8 - 1022.2 1022.0 2.4
19/06:00am 18.6 17.4 12.8 69 3.2 ESE 11 - 6 - 1022.0 1021.8 2.4
19/05:30am 18.5 16.7 12.0 66 3.6 E 13 - 7 - 1021.6 1021.4 2.4
19/05:00am 18.6 16.0 11.9 65 3.7 ESE 17 - 9 - 1021.2 1021.0 2.4
19/04:30am 18.7 15.6 12.2 66 3.6 E 20 - 11 - 1020.9 1020.7 2.4
19/04:00am 18.8 15.3 12.3 66 3.6 E 22 - 12 - 1020.9 1020.7 2.4
19/03:30am 18.8 15.0 12.5 67 3.5 E 24 - 13 - 1020.8 1020.6 2.4
19/03:00am 18.9 15.6 12.9 68 3.4 E 22 - 12 - 1020.6 1020.4 2.4
19/02:30am 18.7 15.1 13.1 70 3.2 E 24 - 13 - 1020.7 1020.5 2.4
19/02:00am 18.7 15.2 13.3 71 3.1 E 24 - 13 - 1020.7 1020.5 2.4
19/01:30am 18.7 15.4 14.0 74 2.7 E 24 - 13 - 1020.9 1020.7 2.4
19/01:00am 18.3 16.2 14.8 80 2.0 E 19 - 10 - 1021.1 1020.9 2.4
19/12:30am 17.7 16.7 14.6 82 1.8 ESE 13 - 7 - 1021.5 1021.3 2.4
19/12:00am 17.5 15.1 13.8 79 2.1 ESE 19 - 10 - 1021.8 1021.6 0.6
 
Date/Time
EDT
Temp
°C
App
Temp
°C
Dew
Point
°C
Rel
Hum
%
Delta-T
°C
Wind Press
QNH
hPa
Press
MSL
hPa
Rain since
9am
mm
Dir  Spd
km/h
Gust
km/h
Spd
kts
Gust
kts
18/11:30pm 18.7 14.1 13.6 72 2.9 E 30 - 16 - 1021.8 1021.6 0.0
18/11:00pm 19.1 16.2 13.9 72 3.0 E 22 - 12 - 1021.6 1021.4 0.0
18/10:30pm 19.2 15.0 13.4 69 3.3 E 28 - 15 - 1021.6 1021.4 0.0
18/10:00pm 19.3 16.9 14.3 73 2.9 E 20 - 11 - 1021.6 1021.4 0.0
18/09:30pm 19.8 17.0 14.4 71 3.1 ENE 22 - 12 - 1021.4 1021.2 0.0
18/09:00pm 19.6 16.5 13.3 67 3.6 E 22 - 12 - 1021.3 1021.1 0.0
18/08:30pm 20.3 17.5 13.3 64 4.0 E 20 - 11 - 1020.8 1020.6 0.0
18/08:00pm 20.6 17.8 13.1 62 4.3 ENE 20 - 11 - 1020.6 1020.4 0.0
18/07:30pm 20.8 16.8 13.0 61 4.4 ENE 26 - 14 - 1020.3 1020.1 0.0
18/07:00pm 20.8 16.8 13.0 61 4.4 ENE 26 - 14 - 1020.0 1019.8 0.0
18/06:30pm 20.9 17.1 13.6 63 4.2 ENE 26 - 14 - 1019.6 1019.5 0.0
18/06:00pm 21.2 17.8 13.6 62 4.4 ENE 24 - 13 - 1019.3 1019.2 0.0
18/05:30pm 21.0 17.8 14.2 65 4.0 ENE 24 - 13 - 1019.2 1019.1 0.0
18/05:00pm 21.3 18.5 14.2 64 4.1 ENE 22 - 12 - 1019.3 1019.2 0.0
18/04:30pm 21.6 18.3 14.0 62 4.4 ENE 24 - 13 - 1019.3 1019.2 0.0
18/04:00pm 21.3 17.5 13.7 62 4.4 ENE 26 - 14 - 1019.4 1019.3 0.0
18/03:30pm 21.1 17.6 13.5 62 4.4 ENE 24 - 13 - 1019.6 1019.5 0.0
18/03:00pm 20.8 16.4 14.2 66 3.8 ENE 30 - 16 - 1019.6 1019.5 0.0
18/02:30pm 21.7 17.3 14.1 62 4.4 ENE 30 - 16 - 1019.9 1019.7 0.0
18/02:00pm 21.7 17.0 14.4 63 4.3 ENE 32 - 17 - 1020.0 1019.8 0.0
18/01:30pm 22.0 17.2 14.1 61 4.6 ENE 32 - 17 - 1020.0 1019.8 0.0

Other Formats:

Comma delimited format used in spreadsheet applications
http://www.bom.gov.au/fwo/IDN60801/IDN60801.94768.axf

JavaScript Object Notation format (JSON) in row-major order
http://www.bom.gov.au/fwo/IDN60801/IDN60801.94768.json